Главная страница
METAR-TAF:

METAR-TAF

Аэропорты :

Gombe Lawanti International Airport

Гомбе, Нигерия

широта: 10-18-19N, долгота: 10-54-31E, высота над уровнем моря: 505 м

METAR: отсутствует

Время: 03:54 (02:54 UTC)

Прогноз

Эта сводка был подготовлена 21 часа и 54 минут назад, в 05:00 UTC
Прогноз действительный с 19-го 06 UTC до 20-го 12 UTC
Ветер 7 Узел от южный-юго-западный
Видимость 10 км и более
Нет облачности ниже 1500 м, и нет кучево-дождевой облачности
временами
С 19-го 16 UTC до 19-го 21 UTC
Отдельные облака на высоте 1100 фута
небольшая облачность на высоте 2000 фута, Кучево-дождевые.
гроза,

TAF: DNGO 190500Z 1906/2012 20007KT CAVOK TEMPO 1916/1921 TS SCT011 FEW020CB

Метеонаблюдения и прогнозы для более 4000 аэропортов (сводки METAR и TAF).

Имеющиеся станции представлены на карте желтыми и красными точками.

Чтобы увидеть название станции, наведите на нее мышь.

Затем щелкните, чтобы увидеть метеонаблюдения и метеопрогнозы.

Управление картой: чтобы увеличить масштаб, щелкните зеленые кнопки с черным крестиком; чтобы уменьшить масштаб, щелкните зеленую кнопку с тире; для просмотра соседних карт щелкайте зеленые стрелки.


METAR-TAF: